sensor_id;sensor_type;location;lat;lon;timestamp;P1;durP1;ratioP1;P2;durP2;ratioP2
3597;SDS011;1813;52.016;8.714;2022-08-25T00:00:26;10.30;;;3.27;;
3597;SDS011;1813;52.016;8.714;2022-08-25T00:02:59;4.87;;;3.33;;
3597;SDS011;1813;52.016;8.714;2022-08-25T00:05:31;12.97;;;3.90;;
3597;SDS011;1813;52.016;8.714;2022-08-25T00:08:03;7.70;;;3.67;;
3597;SDS011;1813;52.016;8.714;2022-08-25T00:10:36;7.13;;;3.70;;
3597;SDS011;1813;52.016;8.714;2022-08-25T00:13:09;6.30;;;3.60;;
3597;SDS011;1813;52.016;8.714;2022-08-25T00:15:41;8.87;;;3.60;;
3597;SDS011;1813;52.016;8.714;2022-08-25T00:18:16;6.97;;;3.80;;
3597;SDS011;1813;52.016;8.714;2022-08-25T00:20:48;4.43;;;3.80;;
3597;SDS011;1813;52.016;8.714;2022-08-25T00:23:19;4.87;;;3.90;;
3597;SDS011;1813;52.016;8.714;2022-08-25T00:25:51;6.73;;;3.90;;
3597;SDS011;1813;52.016;8.714;2022-08-25T00:28:24;10.17;;;3.53;;
3597;SDS011;1813;52.016;8.714;2022-08-25T00:30:56;9.20;;;3.87;;
3597;SDS011;1813;52.016;8.714;2022-08-25T00:33:32;5.27;;;3.73;;
3597;SDS011;1813;52.016;8.714;2022-08-25T00:36:04;7.13;;;3.80;;
3597;SDS011;1813;52.016;8.714;2022-08-25T00:38:36;7.63;;;3.50;;
3597;SDS011;1813;52.016;8.714;2022-08-25T00:41:10;11.23;;;3.90;;
3597;SDS011;1813;52.016;8.714;2022-08-25T00:43:44;8.47;;;3.80;;
3597;SDS011;1813;52.016;8.714;2022-08-25T00:46:19;10.50;;;4.40;;
3597;SDS011;1813;52.016;8.714;2022-08-25T00:48:55;8.97;;;3.93;;
3597;SDS011;1813;52.016;8.714;2022-08-25T00:51:31;8.03;;;3.83;;
3597;SDS011;1813;52.016;8.714;2022-08-25T00:54:07;11.37;;;4.17;;
3597;SDS011;1813;52.016;8.714;2022-08-25T00:56:43;11.10;;;3.80;;
3597;SDS011;1813;52.016;8.714;2022-08-25T00:59:16;6.50;;;4.50;;
3597;SDS011;1813;52.016;8.714;2022-08-25T01:01:49;7.43;;;3.83;;
3597;SDS011;1813;52.016;8.714;2022-08-25T01:04:23;4.80;;;3.80;;
3597;SDS011;1813;52.016;8.714;2022-08-25T01:06:55;6.60;;;4.10;;
3597;SDS011;1813;52.016;8.714;2022-08-25T01:09:29;10.87;;;4.40;;
3597;SDS011;1813;52.016;8.714;2022-08-25T01:12:02;4.30;;;3.90;;
3597;SDS011;1813;52.016;8.714;2022-08-25T01:14:35;7.63;;;4.47;;
3597;SDS011;1813;52.016;8.714;2022-08-25T01:17:08;8.90;;;4.20;;
3597;SDS011;1813;52.016;8.714;2022-08-25T01:19:41;6.17;;;4.23;;
3597;SDS011;1813;52.016;8.714;2022-08-25T01:22:14;6.60;;;3.87;;
3597;SDS011;1813;52.016;8.714;2022-08-25T01:24:49;5.50;;;4.10;;
3597;SDS011;1813;52.016;8.714;2022-08-25T01:27:26;8.10;;;4.10;;
3597;SDS011;1813;52.016;8.714;2022-08-25T01:29:58;5.17;;;4.23;;
3597;SDS011;1813;52.016;8.714;2022-08-25T01:32:32;8.53;;;4.30;;
3597;SDS011;1813;52.016;8.714;2022-08-25T01:35:05;6.57;;;4.00;;
3597;SDS011;1813;52.016;8.714;2022-08-25T01:37:38;5.60;;;3.97;;
3597;SDS011;1813;52.016;8.714;2022-08-25T01:40:11;4.83;;;3.90;;
3597;SDS011;1813;52.016;8.714;2022-08-25T01:42:46;6.50;;;4.43;;
3597;SDS011;1813;52.016;8.714;2022-08-25T01:45:27;6.13;;;4.40;;
3597;SDS011;1813;52.016;8.714;2022-08-25T01:47:59;9.80;;;4.83;;
3597;SDS011;1813;52.016;8.714;2022-08-25T01:50:31;13.33;;;4.87;;
3597;SDS011;1813;52.016;8.714;2022-08-25T01:53:06;9.47;;;4.40;;
3597;SDS011;1813;52.016;8.714;2022-08-25T01:55:42;12.90;;;4.97;;
3597;SDS011;1813;52.016;8.714;2022-08-25T01:58:25;7.43;;;4.77;;
3597;SDS011;1813;52.016;8.714;2022-08-25T02:01:00;6.90;;;4.93;;
3597;SDS011;1813;52.016;8.714;2022-08-25T02:03:35;8.30;;;4.30;;
3597;SDS011;1813;52.016;8.714;2022-08-25T02:06:09;5.30;;;4.60;;
3597;SDS011;1813;52.016;8.714;2022-08-25T02:08:43;8.67;;;4.83;;
3597;SDS011;1813;52.016;8.714;2022-08-25T02:11:15;15.00;;;4.83;;
3597;SDS011;1813;52.016;8.714;2022-08-25T02:13:47;8.40;;;4.67;;
3597;SDS011;1813;52.016;8.714;2022-08-25T02:16:22;9.87;;;4.97;;
3597;SDS011;1813;52.016;8.714;2022-08-25T02:18:57;5.50;;;4.43;;
3597;SDS011;1813;52.016;8.714;2022-08-25T02:21:29;5.83;;;4.30;;
3597;SDS011;1813;52.016;8.714;2022-08-25T02:24:03;7.40;;;4.70;;
3597;SDS011;1813;52.016;8.714;2022-08-25T02:26:35;5.83;;;4.90;;
3597;SDS011;1813;52.016;8.714;2022-08-25T02:29:08;12.53;;;4.77;;
3597;SDS011;1813;52.016;8.714;2022-08-25T02:31:40;5.40;;;4.70;;
3597;SDS011;1813;52.016;8.714;2022-08-25T02:34:12;6.43;;;4.60;;
3597;SDS011;1813;52.016;8.714;2022-08-25T02:36:44;5.27;;;4.80;;
3597;SDS011;1813;52.016;8.714;2022-08-25T02:39:17;5.43;;;4.60;;
3597;SDS011;1813;52.016;8.714;2022-08-25T02:41:49;9.47;;;4.70;;
3597;SDS011;1813;52.016;8.714;2022-08-25T02:44:21;9.87;;;4.73;;
3597;SDS011;1813;52.016;8.714;2022-08-25T02:46:52;5.93;;;5.23;;
3597;SDS011;1813;52.016;8.714;2022-08-25T02:49:24;7.03;;;4.83;;
3597;SDS011;1813;52.016;8.714;2022-08-25T02:51:57;11.07;;;5.10;;
3597;SDS011;1813;52.016;8.714;2022-08-25T02:54:31;5.63;;;5.10;;
3597;SDS011;1813;52.016;8.714;2022-08-25T02:57:03;13.10;;;5.60;;
3597;SDS011;1813;52.016;8.714;2022-08-25T02:59:35;8.97;;;5.07;;
3597;SDS011;1813;52.016;8.714;2022-08-25T03:02:06;7.50;;;5.03;;
3597;SDS011;1813;52.016;8.714;2022-08-25T03:04:38;5.47;;;4.97;;
3597;SDS011;1813;52.016;8.714;2022-08-25T03:07:11;7.13;;;4.80;;
3597;SDS011;1813;52.016;8.714;2022-08-25T03:09:44;12.73;;;6.10;;
3597;SDS011;1813;52.016;8.714;2022-08-25T03:12:16;9.90;;;5.50;;
3597;SDS011;1813;52.016;8.714;2022-08-25T03:14:48;6.67;;;5.30;;
3597;SDS011;1813;52.016;8.714;2022-08-25T03:17:20;9.93;;;5.33;;
3597;SDS011;1813;52.016;8.714;2022-08-25T03:19:51;12.03;;;5.40;;
3597;SDS011;1813;52.016;8.714;2022-08-25T03:22:23;6.17;;;5.27;;
3597;SDS011;1813;52.016;8.714;2022-08-25T03:24:57;10.00;;;5.40;;
3597;SDS011;1813;52.016;8.714;2022-08-25T03:27:49;11.80;;;5.40;;
3597;SDS011;1813;52.016;8.714;2022-08-25T03:30:21;9.20;;;5.53;;
3597;SDS011;1813;52.016;8.714;2022-08-25T03:32:53;9.20;;;5.53;;
3597;SDS011;1813;52.016;8.714;2022-08-25T03:35:25;6.67;;;5.57;;
3597;SDS011;1813;52.016;8.714;2022-08-25T03:37:57;8.07;;;5.63;;
3597;SDS011;1813;52.016;8.714;2022-08-25T03:40:31;5.87;;;5.27;;
3597;SDS011;1813;52.016;8.714;2022-08-25T03:43:03;9.53;;;5.03;;
3597;SDS011;1813;52.016;8.714;2022-08-25T03:45:38;8.00;;;5.47;;
3597;SDS011;1813;52.016;8.714;2022-08-25T03:48:11;9.33;;;5.60;;
3597;SDS011;1813;52.016;8.714;2022-08-25T03:50:44;7.30;;;5.40;;
3597;SDS011;1813;52.016;8.714;2022-08-25T03:53:17;8.17;;;5.40;;
3597;SDS011;1813;52.016;8.714;2022-08-25T03:55:51;8.80;;;5.43;;
3597;SDS011;1813;52.016;8.714;2022-08-25T03:58:22;9.70;;;5.70;;
3597;SDS011;1813;52.016;8.714;2022-08-25T04:00:54;7.23;;;5.33;;
3597;SDS011;1813;52.016;8.714;2022-08-25T04:03:29;7.90;;;5.80;;
3597;SDS011;1813;52.016;8.714;2022-08-25T04:06:01;15.47;;;6.07;;
3597;SDS011;1813;52.016;8.714;2022-08-25T04:08:33;9.13;;;5.70;;
3597;SDS011;1813;52.016;8.714;2022-08-25T04:11:08;8.40;;;5.50;;
3597;SDS011;1813;52.016;8.714;2022-08-25T04:13:42;9.37;;;5.77;;
3597;SDS011;1813;52.016;8.714;2022-08-25T04:16:16;8.70;;;5.20;;
3597;SDS011;1813;52.016;8.714;2022-08-25T04:18:49;9.23;;;5.80;;
3597;SDS011;1813;52.016;8.714;2022-08-25T04:21:22;10.90;;;6.70;;
3597;SDS011;1813;52.016;8.714;2022-08-25T04:23:55;9.00;;;6.30;;
3597;SDS011;1813;52.016;8.714;2022-08-25T04:26:29;10.00;;;6.50;;
3597;SDS011;1813;52.016;8.714;2022-08-25T04:29:03;16.43;;;6.40;;
3597;SDS011;1813;52.016;8.714;2022-08-25T04:31:38;10.07;;;5.90;;
3597;SDS011;1813;52.016;8.714;2022-08-25T04:34:11;7.60;;;6.20;;
3597;SDS011;1813;52.016;8.714;2022-08-25T04:36:44;19.17;;;6.30;;
3597;SDS011;1813;52.016;8.714;2022-08-25T04:39:16;12.43;;;6.00;;
3597;SDS011;1813;52.016;8.714;2022-08-25T04:41:50;9.73;;;5.73;;
3597;SDS011;1813;52.016;8.714;2022-08-25T04:44:22;11.73;;;6.03;;
3597;SDS011;1813;52.016;8.714;2022-08-25T04:46:54;8.33;;;6.00;;
3597;SDS011;1813;52.016;8.714;2022-08-25T04:49:26;11.60;;;5.87;;
3597;SDS011;1813;52.016;8.714;2022-08-25T04:51:58;15.80;;;6.97;;
3597;SDS011;1813;52.016;8.714;2022-08-25T04:54:30;65.33;;;6.67;;
3597;SDS011;1813;52.016;8.714;2022-08-25T04:57:03;12.63;;;6.13;;
3597;SDS011;1813;52.016;8.714;2022-08-25T04:59:36;10.43;;;6.13;;
3597;SDS011;1813;52.016;8.714;2022-08-25T05:02:07;7.73;;;6.03;;
3597;SDS011;1813;52.016;8.714;2022-08-25T05:04:39;7.57;;;6.00;;
3597;SDS011;1813;52.016;8.714;2022-08-25T05:07:11;8.23;;;6.10;;
3597;SDS011;1813;52.016;8.714;2022-08-25T05:09:43;8.33;;;6.37;;
3597;SDS011;1813;52.016;8.714;2022-08-25T05:12:16;15.73;;;7.07;;
3597;SDS011;1813;52.016;8.714;2022-08-25T05:14:50;8.80;;;6.10;;
3597;SDS011;1813;52.016;8.714;2022-08-25T05:17:23;17.83;;;6.47;;
3597;SDS011;1813;52.016;8.714;2022-08-25T05:19:54;8.20;;;6.57;;
3597;SDS011;1813;52.016;8.714;2022-08-25T05:22:26;8.50;;;6.60;;
3597;SDS011;1813;52.016;8.714;2022-08-25T05:24:58;12.53;;;6.83;;
3597;SDS011;1813;52.016;8.714;2022-08-25T05:27:33;16.73;;;6.90;;
3597;SDS011;1813;52.016;8.714;2022-08-25T05:30:06;10.40;;;6.50;;
3597;SDS011;1813;52.016;8.714;2022-08-25T05:32:38;13.20;;;7.10;;
3597;SDS011;1813;52.016;8.714;2022-08-25T05:35:10;16.20;;;7.40;;
3597;SDS011;1813;52.016;8.714;2022-08-25T05:37:42;16.37;;;6.80;;
3597;SDS011;1813;52.016;8.714;2022-08-25T05:40:14;12.67;;;7.50;;
3597;SDS011;1813;52.016;8.714;2022-08-25T05:42:47;16.60;;;7.50;;
3597;SDS011;1813;52.016;8.714;2022-08-25T05:45:19;18.27;;;7.30;;
3597;SDS011;1813;52.016;8.714;2022-08-25T05:47:51;11.40;;;7.60;;
3597;SDS011;1813;52.016;8.714;2022-08-25T05:50:23;12.53;;;7.17;;
3597;SDS011;1813;52.016;8.714;2022-08-25T05:52:55;12.70;;;7.00;;
3597;SDS011;1813;52.016;8.714;2022-08-25T05:55:27;9.20;;;7.33;;
3597;SDS011;1813;52.016;8.714;2022-08-25T05:58:00;20.87;;;7.70;;
3597;SDS011;1813;52.016;8.714;2022-08-25T06:00:32;10.17;;;6.80;;
3597;SDS011;1813;52.016;8.714;2022-08-25T06:03:04;12.47;;;7.40;;
3597;SDS011;1813;52.016;8.714;2022-08-25T06:05:34;16.50;;;7.90;;
3597;SDS011;1813;52.016;8.714;2022-08-25T06:08:06;18.67;;;8.17;;
3597;SDS011;1813;52.016;8.714;2022-08-25T06:10:39;11.57;;;7.50;;
3597;SDS011;1813;52.016;8.714;2022-08-25T06:13:12;11.67;;;7.73;;
3597;SDS011;1813;52.016;8.714;2022-08-25T06:15:44;8.83;;;7.30;;
3597;SDS011;1813;52.016;8.714;2022-08-25T06:18:15;11.40;;;7.10;;
3597;SDS011;1813;52.016;8.714;2022-08-25T06:20:47;8.47;;;6.80;;
3597;SDS011;1813;52.016;8.714;2022-08-25T06:23:19;13.17;;;6.80;;
3597;SDS011;1813;52.016;8.714;2022-08-25T06:25:52;15.83;;;6.57;;
3597;SDS011;1813;52.016;8.714;2022-08-25T06:28:27;10.37;;;6.90;;
3597;SDS011;1813;52.016;8.714;2022-08-25T06:30:59;9.40;;;6.10;;
3597;SDS011;1813;52.016;8.714;2022-08-25T06:33:32;10.93;;;6.40;;
3597;SDS011;1813;52.016;8.714;2022-08-25T06:36:04;13.30;;;6.77;;
3597;SDS011;1813;52.016;8.714;2022-08-25T06:38:36;7.00;;;5.90;;
3597;SDS011;1813;52.016;8.714;2022-08-25T06:41:08;13.93;;;6.43;;
3597;SDS011;1813;52.016;8.714;2022-08-25T06:43:43;8.00;;;5.47;;
3597;SDS011;1813;52.016;8.714;2022-08-25T06:46:16;11.57;;;6.10;;
3597;SDS011;1813;52.016;8.714;2022-08-25T06:48:50;9.43;;;5.50;;
3597;SDS011;1813;52.016;8.714;2022-08-25T06:51:22;8.40;;;6.00;;
3597;SDS011;1813;52.016;8.714;2022-08-25T06:53:55;9.07;;;5.57;;
3597;SDS011;1813;52.016;8.714;2022-08-25T06:56:27;8.23;;;5.77;;
3597;SDS011;1813;52.016;8.714;2022-08-25T06:59:00;12.50;;;5.47;;
3597;SDS011;1813;52.016;8.714;2022-08-25T07:01:33;16.00;;;6.20;;
3597;SDS011;1813;52.016;8.714;2022-08-25T07:04:05;11.80;;;5.90;;
3597;SDS011;1813;52.016;8.714;2022-08-25T07:06:37;12.67;;;6.27;;
3597;SDS011;1813;52.016;8.714;2022-08-25T07:09:09;9.03;;;6.00;;
3597;SDS011;1813;52.016;8.714;2022-08-25T07:11:43;14.90;;;6.77;;
3597;SDS011;1813;52.016;8.714;2022-08-25T07:14:17;9.37;;;6.03;;
3597;SDS011;1813;52.016;8.714;2022-08-25T07:16:49;8.53;;;6.10;;
3597;SDS011;1813;52.016;8.714;2022-08-25T07:19:21;12.83;;;6.10;;
3597;SDS011;1813;52.016;8.714;2022-08-25T07:21:53;11.67;;;6.00;;
3597;SDS011;1813;52.016;8.714;2022-08-25T07:24:25;12.90;;;5.70;;
3597;SDS011;1813;52.016;8.714;2022-08-25T07:26:56;10.80;;;6.37;;
3597;SDS011;1813;52.016;8.714;2022-08-25T07:29:30;19.80;;;6.43;;
3597;SDS011;1813;52.016;8.714;2022-08-25T07:32:03;17.03;;;6.40;;
3597;SDS011;1813;52.016;8.714;2022-08-25T07:34:35;7.93;;;6.07;;
3597;SDS011;1813;52.016;8.714;2022-08-25T07:37:25;19.60;;;6.40;;
3597;SDS011;1813;52.016;8.714;2022-08-25T07:39:56;8.43;;;5.70;;
3597;SDS011;1813;52.016;8.714;2022-08-25T07:42:32;10.27;;;6.03;;
3597;SDS011;1813;52.016;8.714;2022-08-25T07:45:07;11.27;;;6.93;;
3597;SDS011;1813;52.016;8.714;2022-08-25T07:47:40;8.00;;;6.27;;
3597;SDS011;1813;52.016;8.714;2022-08-25T07:50:12;10.77;;;6.83;;
3597;SDS011;1813;52.016;8.714;2022-08-25T07:52:44;9.77;;;7.20;;
3597;SDS011;1813;52.016;8.714;2022-08-25T07:55:17;10.30;;;7.10;;
3597;SDS011;1813;52.016;8.714;2022-08-25T07:57:49;14.23;;;6.53;;
3597;SDS011;1813;52.016;8.714;2022-08-25T08:00:23;12.17;;;7.37;;
3597;SDS011;1813;52.016;8.714;2022-08-25T08:02:56;19.30;;;7.27;;
3597;SDS011;1813;52.016;8.714;2022-08-25T08:05:29;12.83;;;8.37;;
3597;SDS011;1813;52.016;8.714;2022-08-25T08:08:02;13.53;;;7.23;;
3597;SDS011;1813;52.016;8.714;2022-08-25T08:10:34;15.43;;;7.73;;
3597;SDS011;1813;52.016;8.714;2022-08-25T08:13:09;11.53;;;8.50;;
3597;SDS011;1813;52.016;8.714;2022-08-25T08:15:42;12.43;;;8.77;;
3597;SDS011;1813;52.016;8.714;2022-08-25T08:18:15;12.63;;;8.40;;
3597;SDS011;1813;52.016;8.714;2022-08-25T08:20:47;14.60;;;9.40;;
3597;SDS011;1813;52.016;8.714;2022-08-25T08:23:19;13.37;;;8.93;;
3597;SDS011;1813;52.016;8.714;2022-08-25T08:25:56;14.80;;;8.83;;
3597;SDS011;1813;52.016;8.714;2022-08-25T08:28:28;15.20;;;8.67;;
3597;SDS011;1813;52.016;8.714;2022-08-25T08:31:01;14.60;;;9.10;;
3597;SDS011;1813;52.016;8.714;2022-08-25T08:33:34;12.60;;;9.27;;
3597;SDS011;1813;52.016;8.714;2022-08-25T08:36:06;16.03;;;8.73;;
3597;SDS011;1813;52.016;8.714;2022-08-25T08:38:40;15.43;;;9.20;;
3597;SDS011;1813;52.016;8.714;2022-08-25T08:41:20;13.70;;;9.30;;
3597;SDS011;1813;52.016;8.714;2022-08-25T08:44:25;18.10;;;9.80;;
3597;SDS011;1813;52.016;8.714;2022-08-25T08:47:03;12.53;;;9.43;;
3597;SDS011;1813;52.016;8.714;2022-08-25T08:49:44;18.07;;;9.93;;
3597;SDS011;1813;52.016;8.714;2022-08-25T08:52:21;17.80;;;10.30;;
3597;SDS011;1813;52.016;8.714;2022-08-25T08:54:59;14.63;;;10.00;;
3597;SDS011;1813;52.016;8.714;2022-08-25T08:57:38;26.70;;;9.83;;
3597;SDS011;1813;52.016;8.714;2022-08-25T09:00:15;15.30;;;10.50;;
3597;SDS011;1813;52.016;8.714;2022-08-25T09:02:51;10.93;;;9.67;;
3597;SDS011;1813;52.016;8.714;2022-08-25T09:05:28;15.00;;;8.90;;
3597;SDS011;1813;52.016;8.714;2022-08-25T09:08:03;10.70;;;9.10;;
3597;SDS011;1813;52.016;8.714;2022-08-25T09:10:39;14.20;;;9.03;;
3597;SDS011;1813;52.016;8.714;2022-08-25T09:13:33;14.50;;;8.97;;
3597;SDS011;1813;52.016;8.714;2022-08-25T09:16:13;13.57;;;8.60;;
3597;SDS011;1813;52.016;8.714;2022-08-25T09:19:24;10.97;;;8.60;;
3597;SDS011;1813;52.016;8.714;2022-08-25T09:22:18;15.20;;;9.00;;
3597;SDS011;1813;52.016;8.714;2022-08-25T09:25:01;16.70;;;8.93;;
3597;SDS011;1813;52.016;8.714;2022-08-25T09:27:43;16.63;;;9.80;;
3597;SDS011;1813;52.016;8.714;2022-08-25T09:30:23;12.00;;;8.57;;
3597;SDS011;1813;52.016;8.714;2022-08-25T09:32:54;16.07;;;9.10;;
3597;SDS011;1813;52.016;8.714;2022-08-25T09:35:35;12.13;;;8.60;;
3597;SDS011;1813;52.016;8.714;2022-08-25T09:38:10;14.77;;;8.60;;
3597;SDS011;1813;52.016;8.714;2022-08-25T09:40:44;12.10;;;8.70;;
3597;SDS011;1813;52.016;8.714;2022-08-25T09:43:19;14.27;;;8.37;;
3597;SDS011;1813;52.016;8.714;2022-08-25T09:45:54;9.63;;;8.37;;
3597;SDS011;1813;52.016;8.714;2022-08-25T09:48:30;9.63;;;8.03;;
3597;SDS011;1813;52.016;8.714;2022-08-25T09:51:14;13.60;;;8.90;;
3597;SDS011;1813;52.016;8.714;2022-08-25T09:53:51;10.17;;;8.10;;
3597;SDS011;1813;52.016;8.714;2022-08-25T09:56:25;15.83;;;9.10;;
3597;SDS011;1813;52.016;8.714;2022-08-25T10:01:52;16.33;;;8.80;;
3597;SDS011;1813;52.016;8.714;2022-08-25T10:04:25;20.13;;;8.93;;
3597;SDS011;1813;52.016;8.714;2022-08-25T10:07:00;13.70;;;8.80;;
3597;SDS011;1813;52.016;8.714;2022-08-25T10:09:37;13.00;;;8.63;;
3597;SDS011;1813;52.016;8.714;2022-08-25T10:12:15;10.77;;;8.30;;
3597;SDS011;1813;52.016;8.714;2022-08-25T10:14:50;15.43;;;9.07;;
3597;SDS011;1813;52.016;8.714;2022-08-25T10:17:23;13.13;;;8.30;;
3597;SDS011;1813;52.016;8.714;2022-08-25T10:20:11;12.93;;;7.83;;
3597;SDS011;1813;52.016;8.714;2022-08-25T10:22:50;25.87;;;19.27;;
3597;SDS011;1813;52.016;8.714;2022-08-25T10:25:24;14.83;;;8.90;;
3597;SDS011;1813;52.016;8.714;2022-08-25T10:28:02;17.93;;;7.70;;
3597;SDS011;1813;52.016;8.714;2022-08-25T10:30:47;12.20;;;7.93;;
3597;SDS011;1813;52.016;8.714;2022-08-25T10:33:27;11.17;;;8.13;;
3597;SDS011;1813;52.016;8.714;2022-08-25T10:36:11;20.60;;;8.10;;
3597;SDS011;1813;52.016;8.714;2022-08-25T10:38:52;18.03;;;7.80;;
3597;SDS011;1813;52.016;8.714;2022-08-25T10:41:39;12.53;;;7.90;;
3597;SDS011;1813;52.016;8.714;2022-08-25T10:44:22;11.17;;;8.20;;
3597;SDS011;1813;52.016;8.714;2022-08-25T10:47:31;11.87;;;7.70;;
3597;SDS011;1813;52.016;8.714;2022-08-25T10:50:16;10.97;;;7.43;;
3597;SDS011;1813;52.016;8.714;2022-08-25T10:53:02;15.93;;;7.70;;
3597;SDS011;1813;52.016;8.714;2022-08-25T10:55:48;11.23;;;6.77;;
3597;SDS011;1813;52.016;8.714;2022-08-25T10:58:30;7.73;;;6.80;;
3597;SDS011;1813;52.016;8.714;2022-08-25T11:01:23;15.50;;;8.33;;
3597;SDS011;1813;52.016;8.714;2022-08-25T11:04:04;11.20;;;7.20;;
3597;SDS011;1813;52.016;8.714;2022-08-25T11:06:43;14.20;;;7.77;;
3597;SDS011;1813;52.016;8.714;2022-08-25T11:09:22;7.97;;;7.17;;
3597;SDS011;1813;52.016;8.714;2022-08-25T11:11:59;11.50;;;7.80;;
3597;SDS011;1813;52.016;8.714;2022-08-25T11:14:36;8.67;;;6.87;;
3597;SDS011;1813;52.016;8.714;2022-08-25T11:17:13;8.40;;;6.73;;
3597;SDS011;1813;52.016;8.714;2022-08-25T11:19:50;14.03;;;7.00;;
3597;SDS011;1813;52.016;8.714;2022-08-25T11:22:28;11.57;;;7.70;;
3597;SDS011;1813;52.016;8.714;2022-08-25T11:25:10;10.73;;;7.10;;
3597;SDS011;1813;52.016;8.714;2022-08-25T11:27:51;15.00;;;7.20;;
3597;SDS011;1813;52.016;8.714;2022-08-25T11:30:27;13.03;;;7.50;;
3597;SDS011;1813;52.016;8.714;2022-08-25T11:32:59;12.83;;;7.53;;
3597;SDS011;1813;52.016;8.714;2022-08-25T11:35:31;11.77;;;6.97;;
3597;SDS011;1813;52.016;8.714;2022-08-25T11:38:16;13.10;;;7.10;;
3597;SDS011;1813;52.016;8.714;2022-08-25T11:41:00;21.00;;;7.87;;
3597;SDS011;1813;52.016;8.714;2022-08-25T11:43:48;8.00;;;7.20;;
3597;SDS011;1813;52.016;8.714;2022-08-25T11:46:35;12.00;;;7.80;;
3597;SDS011;1813;52.016;8.714;2022-08-25T11:49:24;8.30;;;7.13;;
3597;SDS011;1813;52.016;8.714;2022-08-25T11:55:27;11.77;;;7.80;;
3597;SDS011;1813;52.016;8.714;2022-08-25T11:58:20;13.57;;;8.37;;
3597;SDS011;1813;52.016;8.714;2022-08-25T12:01:03;12.90;;;8.13;;
3597;SDS011;1813;52.016;8.714;2022-08-25T12:03:48;12.10;;;8.60;;
3597;SDS011;1813;52.016;8.714;2022-08-25T12:06:23;13.17;;;8.47;;
3597;SDS011;1813;52.016;8.714;2022-08-25T12:09:18;10.97;;;7.93;;
3597;SDS011;1813;52.016;8.714;2022-08-25T12:11:52;11.77;;;7.87;;
3597;SDS011;1813;52.016;8.714;2022-08-25T12:14:36;12.40;;;7.93;;
3597;SDS011;1813;52.016;8.714;2022-08-25T12:17:25;12.83;;;9.10;;
3597;SDS011;1813;52.016;8.714;2022-08-25T12:20:07;14.43;;;8.77;;
3597;SDS011;1813;52.016;8.714;2022-08-25T12:22:43;10.70;;;8.20;;
3597;SDS011;1813;52.016;8.714;2022-08-25T12:25:42;16.00;;;8.47;;
3597;SDS011;1813;52.016;8.714;2022-08-25T12:28:30;17.60;;;8.47;;
3597;SDS011;1813;52.016;8.714;2022-08-25T12:31:43;13.70;;;8.40;;
3597;SDS011;1813;52.016;8.714;2022-08-25T12:37:22;10.50;;;7.07;;
3597;SDS011;1813;52.016;8.714;2022-08-25T12:39:56;11.00;;;7.77;;
3597;SDS011;1813;52.016;8.714;2022-08-25T12:42:30;11.10;;;7.20;;
3597;SDS011;1813;52.016;8.714;2022-08-25T12:45:07;8.33;;;7.17;;
3597;SDS011;1813;52.016;8.714;2022-08-25T12:51:26;8.77;;;7.17;;
3597;SDS011;1813;52.016;8.714;2022-08-25T12:54:11;8.43;;;6.50;;
3597;SDS011;1813;52.016;8.714;2022-08-25T12:56:51;10.37;;;6.40;;
3597;SDS011;1813;52.016;8.714;2022-08-25T12:59:31;10.03;;;7.13;;
3597;SDS011;1813;52.016;8.714;2022-08-25T13:02:10;11.20;;;6.47;;
3597;SDS011;1813;52.016;8.714;2022-08-25T13:08:19;9.53;;;6.27;;
3597;SDS011;1813;52.016;8.714;2022-08-25T13:11:06;8.83;;;5.70;;
3597;SDS011;1813;52.016;8.714;2022-08-25T13:13:45;7.33;;;6.07;;
3597;SDS011;1813;52.016;8.714;2022-08-25T13:16:22;9.60;;;6.37;;
3597;SDS011;1813;52.016;8.714;2022-08-25T13:18:56;10.50;;;5.90;;
3597;SDS011;1813;52.016;8.714;2022-08-25T13:21:32;9.37;;;6.60;;
3597;SDS011;1813;52.016;8.714;2022-08-25T13:24:10;9.87;;;6.47;;
3597;SDS011;1813;52.016;8.714;2022-08-25T13:26:50;12.87;;;6.60;;
3597;SDS011;1813;52.016;8.714;2022-08-25T13:29:25;10.47;;;6.37;;
3597;SDS011;1813;52.016;8.714;2022-08-25T13:31:59;9.53;;;5.97;;
3597;SDS011;1813;52.016;8.714;2022-08-25T13:34:33;7.57;;;5.70;;
3597;SDS011;1813;52.016;8.714;2022-08-25T13:37:07;9.00;;;5.70;;
3597;SDS011;1813;52.016;8.714;2022-08-25T13:42:57;10.97;;;5.57;;
3597;SDS011;1813;52.016;8.714;2022-08-25T13:45:31;9.70;;;6.10;;
3597;SDS011;1813;52.016;8.714;2022-08-25T13:48:07;14.37;;;6.30;;
3597;SDS011;1813;52.016;8.714;2022-08-25T13:50:40;11.33;;;6.27;;
3597;SDS011;1813;52.016;8.714;2022-08-25T13:53:15;7.97;;;5.83;;
3597;SDS011;1813;52.016;8.714;2022-08-25T13:55:54;6.87;;;5.70;;
3597;SDS011;1813;52.016;8.714;2022-08-25T13:58:30;8.07;;;6.07;;
3597;SDS011;1813;52.016;8.714;2022-08-25T14:01:06;9.60;;;6.07;;
3597;SDS011;1813;52.016;8.714;2022-08-25T14:03:43;8.73;;;5.83;;
3597;SDS011;1813;52.016;8.714;2022-08-25T14:06:19;9.63;;;5.90;;
3597;SDS011;1813;52.016;8.714;2022-08-25T14:09:03;8.20;;;5.60;;
3597;SDS011;1813;52.016;8.714;2022-08-25T14:11:47;13.57;;;6.67;;
3597;SDS011;1813;52.016;8.714;2022-08-25T14:14:30;9.30;;;6.13;;
3597;SDS011;1813;52.016;8.714;2022-08-25T14:17:05;8.23;;;5.73;;
3597;SDS011;1813;52.016;8.714;2022-08-25T14:19:43;8.73;;;6.03;;
3597;SDS011;1813;52.016;8.714;2022-08-25T14:22:16;207.07;;;12.17;;
3597;SDS011;1813;52.016;8.714;2022-08-25T14:24:48;14.50;;;5.73;;
3597;SDS011;1813;52.016;8.714;2022-08-25T14:27:24;17.80;;;6.90;;
3597;SDS011;1813;52.016;8.714;2022-08-25T14:29:56;18.30;;;6.03;;
3597;SDS011;1813;52.016;8.714;2022-08-25T14:32:28;7.83;;;5.70;;
3597;SDS011;1813;52.016;8.714;2022-08-25T14:35:00;13.83;;;5.70;;
3597;SDS011;1813;52.016;8.714;2022-08-25T14:37:32;23.00;;;6.03;;
3597;SDS011;1813;52.016;8.714;2022-08-25T14:40:04;14.67;;;5.80;;
3597;SDS011;1813;52.016;8.714;2022-08-25T14:42:38;18.43;;;6.10;;
3597;SDS011;1813;52.016;8.714;2022-08-25T14:45:10;7.40;;;5.53;;
3597;SDS011;1813;52.016;8.714;2022-08-25T14:47:42;9.33;;;5.60;;
3597;SDS011;1813;52.016;8.714;2022-08-25T14:50:16;16.97;;;5.83;;
3597;SDS011;1813;52.016;8.714;2022-08-25T14:52:49;9.50;;;6.03;;
3597;SDS011;1813;52.016;8.714;2022-08-25T14:55:21;12.70;;;5.70;;
3597;SDS011;1813;52.016;8.714;2022-08-25T14:57:54;9.30;;;5.57;;
3597;SDS011;1813;52.016;8.714;2022-08-25T15:00:26;11.13;;;5.27;;
3597;SDS011;1813;52.016;8.714;2022-08-25T15:02:58;11.30;;;6.00;;
3597;SDS011;1813;52.016;8.714;2022-08-25T15:05:30;11.63;;;5.87;;
3597;SDS011;1813;52.016;8.714;2022-08-25T15:08:02;6.93;;;6.10;;
3597;SDS011;1813;52.016;8.714;2022-08-25T15:10:51;12.97;;;6.13;;
3597;SDS011;1813;52.016;8.714;2022-08-25T15:13:25;8.40;;;6.33;;
3597;SDS011;1813;52.016;8.714;2022-08-25T15:15:57;17.07;;;6.47;;
3597;SDS011;1813;52.016;8.714;2022-08-25T15:18:30;14.80;;;6.20;;
3597;SDS011;1813;52.016;8.714;2022-08-25T15:21:02;10.97;;;6.53;;
3597;SDS011;1813;52.016;8.714;2022-08-25T15:23:34;11.70;;;5.90;;
3597;SDS011;1813;52.016;8.714;2022-08-25T15:26:06;15.50;;;5.73;;
3597;SDS011;1813;52.016;8.714;2022-08-25T15:28:43;12.13;;;5.20;;
3597;SDS011;1813;52.016;8.714;2022-08-25T15:31:19;8.90;;;5.73;;
3597;SDS011;1813;52.016;8.714;2022-08-25T15:33:51;10.43;;;5.50;;
3597;SDS011;1813;52.016;8.714;2022-08-25T15:36:24;7.97;;;6.07;;
3597;SDS011;1813;52.016;8.714;2022-08-25T15:38:56;6.93;;;5.77;;
3597;SDS011;1813;52.016;8.714;2022-08-25T15:41:28;10.20;;;5.83;;
3597;SDS011;1813;52.016;8.714;2022-08-25T15:44:02;9.50;;;6.03;;
3597;SDS011;1813;52.016;8.714;2022-08-25T15:46:34;11.63;;;6.50;;
3597;SDS011;1813;52.016;8.714;2022-08-25T15:49:08;11.17;;;6.80;;
3597;SDS011;1813;52.016;8.714;2022-08-25T15:51:40;14.30;;;6.50;;
3597;SDS011;1813;52.016;8.714;2022-08-25T15:54:12;14.60;;;6.83;;
3597;SDS011;1813;52.016;8.714;2022-08-25T15:56:44;9.50;;;6.17;;
3597;SDS011;1813;52.016;8.714;2022-08-25T15:59:18;16.83;;;7.07;;
3597;SDS011;1813;52.016;8.714;2022-08-25T16:01:50;15.87;;;6.00;;
3597;SDS011;1813;52.016;8.714;2022-08-25T16:04:24;13.07;;;5.97;;
3597;SDS011;1813;52.016;8.714;2022-08-25T16:06:58;7.13;;;5.87;;
3597;SDS011;1813;52.016;8.714;2022-08-25T16:09:30;11.07;;;6.57;;
3597;SDS011;1813;52.016;8.714;2022-08-25T16:12:03;15.83;;;6.20;;
3597;SDS011;1813;52.016;8.714;2022-08-25T16:14:37;9.97;;;6.10;;
3597;SDS011;1813;52.016;8.714;2022-08-25T16:17:10;14.30;;;6.30;;